createdAt,value
2023-05-17T00:01:57.097Z,13.77
2023-05-17T00:04:24.341Z,13.65
2023-05-17T00:06:51.582Z,15.88
2023-05-17T00:09:19.177Z,15.60
2023-05-17T00:11:46.390Z,14.75
2023-05-17T00:14:13.584Z,12.48
2023-05-17T00:16:40.845Z,17.60
2023-05-17T00:19:09.551Z,18.35
2023-05-17T00:21:37.291Z,14.18
2023-05-17T00:24:04.897Z,18.13
2023-05-17T00:26:33.666Z,17.92
2023-05-17T00:29:01.275Z,16.08
2023-05-17T00:31:28.521Z,17.02
2023-05-17T00:33:55.789Z,14.23
2023-05-17T00:36:23.116Z,11.90
2023-05-17T00:38:50.305Z,15.70
2023-05-17T00:41:18.155Z,15.05
2023-05-17T00:43:45.353Z,13.70
2023-05-17T00:46:12.595Z,18.02
2023-05-17T00:48:40.221Z,13.13
2023-05-17T00:51:07.684Z,14.57
2023-05-17T00:53:37.065Z,19.15
2023-05-17T00:56:05.244Z,16.27
2023-05-17T00:58:33.789Z,15.38
2023-05-17T01:01:01.926Z,21.10
2023-05-17T01:03:29.372Z,15.40
2023-05-17T01:05:56.689Z,13.15
2023-05-17T01:08:23.919Z,17.05
2023-05-17T01:11:29.366Z,18.30
2023-05-17T01:14:09.922Z,19.88
2023-05-17T01:16:44.307Z,13.25
2023-05-17T01:19:56.957Z,14.30
2023-05-17T01:22:50.006Z,17.42
2023-05-17T01:25:57.565Z,16.92
2023-05-17T01:28:27.361Z,19.77
2023-05-17T01:30:58.708Z,14.20
2023-05-17T01:33:26.541Z,19.17
2023-05-17T01:35:53.833Z,15.18
2023-05-17T01:38:21.166Z,16.67
2023-05-17T01:40:58.833Z,16.70
2023-05-17T01:43:55.560Z,16.50
2023-05-17T01:46:30.477Z,16.80
2023-05-17T01:49:15.124Z,17.80
2023-05-17T01:52:03.284Z,20.13
2023-05-17T01:54:38.295Z,15.00
2023-05-17T01:57:07.871Z,15.52
2023-05-17T01:59:38.730Z,16.00
2023-05-17T02:02:08.766Z,18.42
2023-05-17T02:04:36.576Z,20.60
2023-05-17T02:07:04.212Z,15.85
2023-05-17T02:09:31.593Z,14.77
2023-05-17T02:11:58.786Z,14.70
2023-05-17T02:14:26.011Z,16.02
2023-05-17T02:16:53.206Z,25.33
2023-05-17T02:19:20.408Z,19.13
2023-05-17T02:21:47.629Z,18.15
2023-05-17T02:24:14.840Z,15.07
2023-05-17T02:26:43.212Z,21.75
2023-05-17T02:29:11.166Z,21.70
2023-05-17T02:31:38.466Z,20.75
2023-05-17T02:34:05.662Z,19.88
2023-05-17T02:36:32.873Z,18.10
2023-05-17T02:39:00.089Z,21.27
2023-05-17T02:41:27.295Z,14.93
2023-05-17T02:43:54.518Z,20.85
2023-05-17T02:46:22.205Z,22.02
2023-05-17T02:48:49.497Z,16.17
2023-05-17T02:51:16.743Z,15.95
2023-05-17T02:53:43.934Z,22.02
2023-05-17T02:56:12.029Z,17.70
2023-05-17T02:58:39.223Z,20.38
2023-05-17T03:01:06.498Z,21.95
2023-05-17T03:03:33.840Z,22.50
2023-05-17T03:06:02.058Z,17.52
2023-05-17T03:08:29.349Z,23.65
2023-05-17T03:10:56.746Z,19.00
2023-05-17T03:13:23.936Z,19.80
2023-05-17T03:15:51.141Z,18.35
2023-05-17T03:18:18.491Z,18.30
2023-05-17T03:20:45.753Z,22.30
2023-05-17T03:23:12.928Z,23.52
2023-05-17T03:25:40.323Z,67.47
2023-05-17T03:28:07.477Z,40.85
2023-05-17T03:30:34.716Z,42.72
2023-05-17T03:33:02.078Z,25.23
2023-05-17T03:35:29.600Z,22.75
2023-05-17T03:37:56.959Z,24.58
2023-05-17T03:40:24.190Z,24.33
2023-05-17T03:42:51.880Z,24.52
2023-05-17T03:45:19.258Z,22.58
2023-05-17T03:47:46.503Z,22.17
2023-05-17T03:50:13.754Z,27.08
2023-05-17T03:52:41.962Z,25.08
2023-05-17T03:55:09.700Z,28.38
2023-05-17T03:57:36.902Z,26.77
2023-05-17T04:00:09.139Z,23.95
2023-05-17T04:02:36.770Z,27.73
2023-05-17T04:05:05.039Z,25.67
2023-05-17T04:07:32.254Z,25.23
2023-05-17T04:09:59.551Z,26.98
2023-05-17T04:12:26.765Z,26.00
2023-05-17T04:14:54.019Z,28.55
2023-05-17T04:17:21.225Z,25.55
2023-05-17T04:19:48.423Z,20.13
2023-05-17T04:22:15.637Z,27.30
2023-05-17T04:24:42.820Z,29.88
2023-05-17T04:27:09.989Z,34.78
2023-05-17T04:29:37.297Z,27.77
2023-05-17T04:32:04.961Z,27.75
2023-05-17T04:34:32.690Z,32.33
2023-05-17T04:36:59.905Z,32.13
2023-05-17T04:39:29.494Z,25.30
2023-05-17T04:41:58.001Z,31.85
2023-05-17T04:44:25.425Z,30.52
2023-05-17T04:46:52.947Z,23.48
2023-05-17T04:49:20.106Z,27.52
2023-05-17T04:51:47.313Z,28.77
2023-05-17T04:54:14.522Z,25.85
2023-05-17T04:56:41.854Z,31.38
2023-05-17T04:59:09.050Z,24.27
2023-05-17T05:01:37.099Z,30.92
2023-05-17T05:04:07.013Z,25.88
2023-05-17T05:06:35.025Z,30.00
2023-05-17T05:09:02.311Z,19.80
2023-05-17T05:11:29.734Z,28.60
2023-05-17T05:13:56.949Z,29.88
2023-05-17T05:16:25.263Z,26.55
2023-05-17T05:18:52.557Z,28.90
2023-05-17T05:21:19.856Z,30.50
2023-05-17T05:23:47.045Z,27.50
2023-05-17T05:26:14.297Z,26.02
2023-05-17T05:28:41.493Z,42.03
2023-05-17T05:31:08.675Z,24.80
2023-05-17T05:33:36.388Z,27.75
2023-05-17T05:36:03.949Z,26.98
2023-05-17T05:38:31.141Z,26.90
2023-05-17T05:40:58.350Z,29.33
2023-05-17T05:43:25.643Z,26.70
2023-05-17T05:45:52.862Z,24.90
2023-05-17T05:48:20.159Z,25.42
2023-05-17T05:50:47.827Z,29.67
2023-05-17T05:53:19.466Z,29.77
2023-05-17T05:55:47.139Z,24.37
2023-05-17T05:58:14.352Z,24.13
2023-05-17T06:00:41.645Z,26.23
2023-05-17T06:03:08.950Z,25.85
2023-05-17T06:05:36.210Z,19.88
2023-05-17T06:08:03.638Z,31.50
2023-05-17T06:10:30.999Z,25.90
2023-05-17T06:12:58.421Z,22.98
2023-05-17T06:15:28.314Z,22.27
2023-05-17T06:17:55.560Z,22.63
2023-05-17T06:20:25.501Z,21.73
2023-05-17T06:22:52.738Z,22.88
2023-05-17T06:25:19.937Z,25.17
2023-05-17T06:27:47.212Z,21.13
2023-05-17T06:30:14.571Z,16.67
2023-05-17T06:32:42.102Z,21.45
2023-05-17T06:35:10.511Z,17.52
2023-05-17T06:37:37.706Z,17.67
2023-05-17T06:40:15.350Z,21.65
2023-05-17T06:42:43.656Z,22.75
2023-05-17T06:45:11.350Z,17.35
2023-05-17T06:47:38.834Z,18.08
2023-05-17T06:50:08.593Z,21.17
2023-05-17T06:52:36.305Z,18.70
2023-05-17T06:55:03.798Z,18.30
2023-05-17T06:57:31.158Z,15.65
2023-05-17T06:59:58.387Z,15.43
2023-05-17T07:02:25.690Z,16.90
2023-05-17T07:04:53.015Z,22.08
2023-05-17T07:07:20.515Z,20.27
2023-05-17T07:09:47.715Z,19.15
2023-05-17T07:12:14.912Z,21.05
2023-05-17T07:14:42.111Z,19.20
2023-05-17T07:17:11.298Z,22.33
2023-05-17T07:19:38.701Z,14.90
2023-05-17T07:22:06.401Z,22.30
2023-05-17T07:24:35.318Z,19.10
2023-05-17T07:27:02.578Z,22.50
2023-05-17T07:29:29.857Z,18.48
2023-05-17T07:31:57.175Z,21.15
2023-05-17T07:34:24.403Z,17.40
2023-05-17T07:36:51.638Z,22.85
2023-05-17T07:39:18.950Z,20.40
2023-05-17T07:41:46.123Z,18.00
2023-05-17T07:44:13.332Z,17.40
2023-05-17T07:46:40.537Z,18.17
2023-05-17T07:49:07.941Z,22.88
2023-05-17T07:51:36.074Z,21.50
2023-05-17T07:54:03.532Z,23.45
2023-05-17T07:56:30.802Z,16.17
2023-05-17T07:58:57.979Z,17.95
2023-05-17T08:01:25.991Z,15.82
2023-05-17T08:03:53.822Z,13.02
2023-05-17T08:06:21.071Z,20.73
2023-05-17T08:08:48.315Z,18.60
2023-05-17T08:11:15.827Z,15.65
2023-05-17T08:13:44.164Z,16.85
2023-05-17T08:16:14.603Z,14.82
2023-05-17T08:18:43.579Z,21.52
2023-05-17T08:21:11.439Z,16.02
2023-05-17T08:23:39.341Z,16.95
2023-05-17T08:26:06.697Z,14.02
2023-05-17T08:28:34.676Z,12.55
2023-05-17T08:31:04.128Z,21.48
2023-05-17T08:33:31.474Z,13.27
2023-05-17T08:36:01.317Z,14.93
2023-05-17T08:38:28.681Z,16.10
2023-05-17T08:40:56.745Z,12.60
2023-05-17T08:43:26.825Z,13.32
2023-05-17T08:45:57.784Z,12.98
2023-05-17T08:48:27.597Z,13.00
2023-05-17T08:50:57.967Z,14.50
2023-05-17T08:53:26.606Z,9.85
2023-05-17T08:56:04.370Z,12.38
2023-05-17T08:58:51.729Z,14.52
2023-05-17T09:01:25.953Z,17.45
2023-05-17T09:03:54.419Z,15.55
2023-05-17T09:06:23.947Z,15.38
2023-05-17T09:08:53.621Z,14.90
2023-05-17T09:11:34.748Z,19.50
2023-05-17T09:14:06.237Z,18.25
2023-05-17T09:16:36.247Z,20.10
2023-05-17T09:19:07.230Z,15.68
2023-05-17T09:21:37.368Z,22.15
2023-05-17T09:24:08.050Z,14.25
2023-05-17T09:26:40.204Z,16.10
2023-05-17T09:29:10.424Z,17.67
2023-05-17T09:31:38.492Z,15.40
2023-05-17T09:34:08.137Z,15.13
2023-05-17T09:36:38.131Z,14.10
2023-05-17T09:39:10.611Z,19.98
2023-05-17T09:41:48.690Z,12.57
2023-05-17T09:44:16.523Z,12.13
2023-05-17T09:46:48.935Z,18.50
2023-05-17T09:49:18.293Z,14.10
2023-05-17T09:51:48.348Z,14.85
2023-05-17T09:54:17.735Z,12.40
2023-05-17T09:56:45.166Z,18.98
2023-05-17T09:59:15.436Z,13.43
2023-05-17T10:01:45.280Z,13.75
2023-05-17T10:04:14.093Z,16.10
2023-05-17T10:06:48.523Z,13.13
2023-05-17T10:09:22.355Z,10.80
2023-05-17T10:11:52.866Z,14.95
2023-05-17T10:14:31.769Z,12.38
2023-05-17T10:17:01.748Z,12.98
2023-05-17T10:19:29.200Z,12.73
2023-05-17T10:22:05.204Z,11.55
2023-05-17T10:24:47.916Z,14.55
2023-05-17T10:27:16.339Z,10.27
2023-05-17T10:29:47.012Z,12.80
2023-05-17T10:32:19.346Z,9.77
2023-05-17T10:35:05.816Z,16.15
2023-05-17T10:37:34.153Z,10.48
2023-05-17T10:40:01.651Z,10.20
2023-05-17T10:42:32.109Z,9.35
2023-05-17T10:45:01.606Z,8.88
2023-05-17T10:47:33.458Z,9.45
2023-05-17T10:50:01.754Z,10.53
2023-05-17T10:52:29.000Z,9.63
2023-05-17T10:54:59.632Z,11.63
2023-05-17T10:57:50.725Z,10.40
2023-05-17T11:00:30.399Z,12.73
2023-05-17T11:03:16.615Z,8.80
2023-05-17T11:06:22.066Z,7.60
2023-05-17T11:09:16.393Z,11.93
2023-05-17T11:12:11.384Z,10.80
2023-05-17T11:14:49.455Z,6.50
2023-05-17T11:17:20.030Z,10.68
2023-05-17T11:20:29.360Z,10.55
2023-05-17T11:22:58.979Z,16.98
2023-05-17T11:25:35.477Z,14.38
2023-05-17T11:28:18.300Z,10.77
2023-05-17T11:30:51.469Z,6.32
2023-05-17T11:33:33.014Z,11.70
2023-05-17T11:36:13.884Z,10.73
2023-05-17T11:38:41.109Z,10.07
2023-05-17T11:41:27.055Z,10.93
2023-05-17T11:43:55.341Z,9.02
2023-05-17T11:46:24.623Z,8.63
2023-05-17T11:48:53.908Z,6.75
2023-05-17T11:51:25.023Z,10.43
2023-05-17T11:53:55.479Z,10.10
2023-05-17T11:56:35.929Z,11.13
2023-05-17T11:59:10.897Z,5.90
2023-05-17T12:01:49.451Z,9.65
2023-05-17T12:04:27.706Z,6.57
2023-05-17T12:06:55.852Z,9.13
2023-05-17T12:09:24.391Z,9.18
2023-05-17T12:11:51.635Z,13.38
2023-05-17T12:14:20.272Z,8.02
2023-05-17T12:16:56.388Z,10.20
2023-05-17T12:19:26.076Z,9.38
2023-05-17T12:21:53.401Z,9.65
2023-05-17T12:24:20.628Z,9.02
2023-05-17T12:26:48.334Z,8.35
2023-05-17T12:29:22.674Z,8.07
2023-05-17T12:31:53.823Z,8.65
2023-05-17T12:34:22.072Z,13.38
2023-05-17T12:36:50.480Z,8.50
2023-05-17T12:39:23.326Z,9.75
2023-05-17T12:44:22.402Z,10.45
2023-05-17T12:46:53.668Z,12.00
2023-05-17T12:49:21.730Z,10.80
2023-05-17T12:51:50.058Z,7.65
2023-05-17T12:54:30.064Z,7.68
2023-05-17T12:56:57.623Z,9.88
2023-05-17T12:59:25.850Z,7.90
2023-05-17T13:01:56.524Z,10.30
2023-05-17T13:04:49.931Z,6.35
2023-05-17T13:07:24.381Z,5.38
2023-05-17T13:09:51.814Z,12.48
2023-05-17T13:12:24.562Z,7.72
2023-05-17T13:14:53.634Z,7.68
2023-05-17T13:17:36.412Z,7.45
2023-05-17T13:20:06.432Z,5.28
2023-05-17T13:22:35.101Z,6.75
2023-05-17T13:25:03.412Z,8.77
2023-05-17T13:27:30.664Z,8.27
2023-05-17T13:29:57.882Z,8.85
2023-05-17T13:32:25.272Z,10.40
2023-05-17T13:34:52.585Z,9.45
2023-05-17T13:37:21.324Z,6.40
2023-05-17T13:39:49.458Z,16.20
2023-05-17T13:42:17.465Z,8.68
2023-05-17T13:44:44.640Z,7.72
2023-05-17T13:47:12.088Z,11.43
2023-05-17T13:49:39.277Z,10.00
2023-05-17T13:52:09.744Z,8.65
2023-05-17T13:54:37.838Z,10.68
2023-05-17T13:57:07.906Z,12.82
2023-05-17T13:59:35.410Z,7.95
2023-05-17T14:02:04.070Z,8.52
2023-05-17T14:04:32.260Z,12.77
2023-05-17T14:06:59.479Z,7.50
2023-05-17T14:09:26.647Z,11.70
2023-05-17T14:11:53.838Z,7.00
2023-05-17T14:14:21.005Z,5.80
2023-05-17T14:16:48.168Z,8.63
2023-05-17T14:19:15.393Z,9.15
2023-05-17T14:21:42.621Z,8.15
2023-05-17T14:24:09.803Z,5.70
2023-05-17T14:26:37.197Z,11.60
2023-05-17T14:29:06.197Z,7.97
2023-05-17T14:31:33.653Z,10.07
2023-05-17T14:34:02.590Z,13.45
2023-05-17T14:36:29.849Z,7.82
2023-05-17T14:38:57.022Z,9.02
2023-05-17T14:41:24.218Z,7.50
2023-05-17T14:43:51.601Z,8.38
2023-05-17T14:46:19.591Z,7.90
2023-05-17T14:48:46.953Z,9.25
2023-05-17T14:51:14.181Z,8.52
2023-05-17T14:53:41.364Z,11.35
2023-05-17T14:56:08.802Z,12.13
2023-05-17T14:58:35.978Z,12.75
2023-05-17T15:01:05.010Z,7.13
2023-05-17T15:03:33.561Z,10.75
2023-05-17T15:06:03.286Z,13.75
2023-05-17T15:08:32.625Z,5.65
2023-05-17T15:10:59.868Z,10.40
2023-05-17T15:13:27.117Z,6.18
2023-05-17T15:15:54.295Z,7.88
2023-05-17T15:18:22.355Z,6.45
2023-05-17T15:20:49.764Z,8.93
2023-05-17T15:23:16.954Z,5.57
2023-05-17T15:25:44.106Z,10.93
2023-05-17T15:28:11.504Z,9.43
2023-05-17T15:30:38.676Z,7.25
2023-05-17T15:33:06.496Z,8.88
2023-05-17T15:35:33.773Z,6.65
2023-05-17T15:38:05.905Z,9.07
2023-05-17T15:40:33.897Z,6.07
2023-05-17T15:43:01.127Z,7.13
2023-05-17T15:45:29.125Z,6.75
2023-05-17T15:47:57.193Z,6.72
2023-05-17T15:50:24.516Z,7.75
2023-05-17T15:52:51.732Z,11.75
2023-05-17T15:55:19.161Z,9.20
2023-05-17T15:57:46.548Z,6.03
2023-05-17T16:00:14.437Z,8.38
2023-05-17T16:02:41.682Z,9.20
2023-05-17T16:05:09.260Z,8.77
2023-05-17T16:07:36.578Z,11.50
2023-05-17T16:10:04.199Z,6.78
2023-05-17T16:12:31.570Z,13.13
2023-05-17T16:14:58.767Z,8.25
2023-05-17T16:17:26.177Z,13.23
2023-05-17T16:19:53.601Z,8.35
2023-05-17T16:22:21.533Z,11.60
2023-05-17T16:24:53.719Z,15.48
2023-05-17T16:27:21.713Z,9.80
2023-05-17T16:29:48.954Z,10.15
2023-05-17T16:32:16.404Z,12.40
2023-05-17T16:34:43.622Z,12.27
2023-05-17T16:37:11.046Z,7.65
2023-05-17T16:39:38.342Z,8.65
2023-05-17T16:42:06.005Z,8.10
2023-05-17T16:44:33.252Z,7.10
2023-05-17T16:47:00.667Z,8.73
2023-05-17T16:49:28.937Z,9.45
2023-05-17T16:51:56.139Z,9.88
2023-05-17T16:54:23.338Z,9.23
2023-05-17T16:56:50.511Z,9.45
2023-05-17T16:59:17.690Z,9.05
2023-05-17T17:01:45.715Z,11.00
2023-05-17T17:04:13.057Z,6.35
2023-05-17T17:06:40.368Z,9.88
2023-05-17T17:09:08.977Z,9.18
2023-05-17T17:11:36.345Z,10.10
2023-05-17T17:14:04.269Z,13.50
2023-05-17T17:16:31.873Z,10.63
2023-05-17T17:18:59.685Z,10.55
2023-05-17T17:21:26.864Z,12.10
2023-05-17T17:23:54.017Z,9.60
2023-05-17T17:26:21.930Z,10.32
2023-05-17T17:28:49.098Z,14.15
2023-05-17T17:31:18.127Z,12.07
2023-05-17T17:33:45.344Z,10.88
2023-05-17T17:36:12.607Z,8.73
2023-05-17T17:38:39.766Z,8.43
2023-05-17T17:41:06.946Z,11.27
2023-05-17T17:43:34.146Z,11.52
2023-05-17T17:46:01.480Z,10.38
2023-05-17T17:48:29.054Z,14.15
2023-05-17T17:50:56.239Z,11.00
2023-05-17T17:53:23.442Z,11.93
2023-05-17T17:55:50.630Z,9.90
2023-05-17T17:58:17.829Z,13.07
2023-05-17T18:00:45.043Z,11.82
2023-05-17T18:03:12.871Z,13.57
2023-05-17T18:05:40.503Z,13.68
2023-05-17T18:08:07.753Z,13.43
2023-05-17T18:10:35.094Z,13.43
2023-05-17T18:13:02.336Z,10.10
2023-05-17T18:15:29.565Z,14.63
2023-05-17T18:17:57.610Z,11.43
2023-05-17T18:20:26.274Z,14.27
2023-05-17T18:22:53.771Z,13.35
2023-05-17T18:25:21.868Z,11.23
2023-05-17T18:27:49.088Z,10.48
2023-05-17T18:30:17.932Z,10.57
2023-05-17T18:32:45.339Z,11.85
2023-05-17T18:35:12.778Z,13.00
2023-05-17T18:37:39.988Z,10.35
2023-05-17T18:40:07.985Z,15.75
2023-05-17T18:42:35.173Z,8.85
2023-05-17T18:45:02.443Z,7.78
2023-05-17T18:47:29.763Z,12.52
2023-05-17T18:49:57.068Z,16.17
2023-05-17T18:52:24.247Z,8.80
2023-05-17T18:54:51.425Z,13.90
2023-05-17T18:57:18.611Z,8.65
2023-05-17T18:59:46.023Z,12.20
2023-05-17T19:02:13.201Z,10.32
2023-05-17T19:04:40.627Z,8.68
2023-05-17T19:07:07.908Z,13.18
2023-05-17T19:09:35.139Z,14.02
2023-05-17T19:12:02.496Z,9.75
2023-05-17T19:14:29.748Z,13.65
2023-05-17T19:16:57.150Z,10.38
2023-05-17T19:19:25.692Z,11.65
2023-05-17T19:21:52.894Z,9.77
2023-05-17T19:24:20.113Z,14.02
2023-05-17T19:26:47.280Z,16.75
2023-05-17T19:29:14.676Z,7.53
2023-05-17T19:31:41.881Z,16.90
2023-05-17T19:34:09.458Z,13.07
2023-05-17T19:36:36.604Z,13.73
2023-05-17T19:39:03.857Z,13.50
2023-05-17T19:41:31.163Z,14.75
2023-05-17T19:43:58.351Z,14.07
2023-05-17T19:46:25.581Z,15.65
2023-05-17T19:48:53.003Z,12.77
2023-05-17T19:51:20.268Z,15.00
2023-05-17T19:53:53.279Z,12.55
2023-05-17T19:56:24.167Z,10.27
2023-05-17T19:58:52.427Z,11.18
2023-05-17T20:01:21.651Z,9.32
2023-05-17T20:03:49.180Z,14.75
2023-05-17T20:06:16.504Z,12.75
2023-05-17T20:08:43.706Z,12.45
2023-05-17T20:11:11.174Z,16.13
2023-05-17T20:13:41.467Z,17.10
2023-05-17T20:16:12.976Z,13.95
2023-05-17T20:18:43.548Z,14.77
2023-05-17T20:21:14.995Z,16.13
2023-05-17T20:23:42.374Z,17.98
2023-05-17T20:26:16.272Z,15.80
2023-05-17T20:28:44.764Z,18.02
2023-05-17T20:31:12.409Z,17.85
2023-05-17T20:33:39.602Z,13.30
2023-05-17T20:36:07.091Z,16.45
2023-05-17T20:38:34.265Z,18.35
2023-05-17T20:41:01.479Z,13.32
2023-05-17T20:43:28.931Z,11.60
2023-05-17T20:45:56.448Z,15.73
2023-05-17T20:48:23.748Z,13.50
2023-05-17T20:50:51.268Z,13.60
2023-05-17T20:53:18.469Z,14.32
2023-05-17T20:55:45.668Z,11.32
2023-05-17T20:58:12.829Z,14.65
2023-05-17T21:00:40.016Z,11.68
2023-05-17T21:03:09.193Z,14.10
2023-05-17T21:05:38.411Z,13.18
2023-05-17T21:08:07.314Z,13.65
2023-05-17T21:10:36.065Z,14.35
2023-05-17T21:13:03.240Z,24.63
2023-05-17T21:15:30.606Z,19.58
2023-05-17T21:17:57.969Z,21.02
2023-05-17T21:20:25.191Z,12.05
2023-05-17T21:22:52.377Z,15.95
2023-05-17T21:25:20.544Z,23.35
2023-05-17T21:27:47.735Z,29.65
2023-05-17T21:30:14.945Z,19.85
2023-05-17T21:32:42.252Z,13.10
2023-05-17T21:35:09.633Z,16.60
2023-05-17T21:37:39.911Z,11.60
2023-05-17T21:40:08.615Z,8.75
2023-05-17T21:42:35.985Z,13.77
2023-05-17T21:45:03.407Z,16.75
2023-05-17T21:47:30.659Z,13.70
2023-05-17T21:49:57.887Z,17.88
2023-05-17T21:52:25.187Z,14.30
2023-05-17T21:54:52.371Z,13.40
2023-05-17T21:57:21.053Z,11.57
2023-05-17T21:59:49.392Z,12.38
2023-05-17T22:02:16.868Z,9.68
2023-05-17T22:04:44.101Z,13.35
2023-05-17T22:07:11.701Z,16.67
2023-05-17T22:09:38.867Z,16.13
2023-05-17T22:12:08.421Z,16.60
2023-05-17T22:14:36.349Z,12.30
2023-05-17T22:17:08.310Z,10.15
2023-05-17T22:19:40.400Z,16.10
2023-05-17T22:22:09.203Z,12.67
2023-05-17T22:24:37.057Z,18.17
2023-05-17T22:27:04.537Z,16.80
2023-05-17T22:29:33.214Z,11.50
2023-05-17T22:32:00.507Z,12.55
2023-05-17T22:34:27.957Z,13.95
2023-05-17T22:36:55.197Z,10.63
2023-05-17T22:39:22.381Z,12.50
2023-05-17T22:41:49.604Z,12.75
2023-05-17T22:44:16.899Z,16.60
2023-05-17T22:46:46.597Z,13.20
2023-05-17T22:49:13.814Z,14.90
2023-05-17T22:51:40.987Z,17.30
2023-05-17T22:54:08.230Z,11.27
2023-05-17T22:56:35.492Z,10.80
2023-05-17T22:59:02.690Z,11.50
2023-05-17T23:01:29.963Z,18.45
2023-05-17T23:03:57.250Z,15.43
2023-05-17T23:06:26.060Z,20.08
2023-05-17T23:08:53.338Z,17.17
2023-05-17T23:11:20.536Z,11.90
2023-05-17T23:13:47.727Z,11.07
2023-05-17T23:16:14.947Z,14.80
2023-05-17T23:18:42.269Z,13.20
2023-05-17T23:21:09.594Z,15.25
2023-05-17T23:23:37.968Z,17.15
2023-05-17T23:26:05.927Z,15.57
2023-05-17T23:28:33.113Z,12.98
2023-05-17T23:31:01.415Z,17.90
2023-05-17T23:33:31.190Z,12.70
2023-05-17T23:36:01.287Z,19.65
2023-05-17T23:38:28.530Z,14.20
2023-05-17T23:40:56.274Z,11.55
2023-05-17T23:43:23.451Z,17.42
2023-05-17T23:45:51.254Z,13.95
2023-05-17T23:48:20.674Z,8.38
2023-05-17T23:50:47.905Z,15.02
2023-05-17T23:53:18.395Z,11.00
2023-05-17T23:55:46.410Z,12.73
2023-05-17T23:58:14.717Z,14.60
